sensor_id;sensor_type;location;lat;lon;timestamp;P1;durP1;ratioP1;P2;durP2;ratioP2
29430;SDS011;16404;49.902;10.074;2023-02-01T00:00:14;11.05;;;6.65;;
29430;SDS011;16404;49.902;10.074;2023-02-01T00:02:59;11.95;;;5.82;;
29430;SDS011;16404;49.902;10.074;2023-02-01T00:05:44;8.48;;;6.03;;
29430;SDS011;16404;49.902;10.074;2023-02-01T00:08:37;10.15;;;6.60;;
29430;SDS011;16404;49.902;10.074;2023-02-01T00:11:22;9.50;;;6.13;;
29430;SDS011;16404;49.902;10.074;2023-02-01T00:16:51;11.77;;;5.95;;
29430;SDS011;16404;49.902;10.074;2023-02-01T00:19:36;7.15;;;5.85;;
29430;SDS011;16404;49.902;10.074;2023-02-01T00:22:21;9.45;;;5.43;;
29430;SDS011;16404;49.902;10.074;2023-02-01T00:25:05;6.57;;;5.00;;
29430;SDS011;16404;49.902;10.074;2023-02-01T00:27:50;5.65;;;4.78;;
29430;SDS011;16404;49.902;10.074;2023-02-01T00:30:35;7.70;;;5.13;;
29430;SDS011;16404;49.902;10.074;2023-02-01T00:33:19;5.40;;;4.13;;
29430;SDS011;16404;49.902;10.074;2023-02-01T00:36:05;7.70;;;4.95;;
29430;SDS011;16404;49.902;10.074;2023-02-01T00:38:51;5.30;;;4.28;;
29430;SDS011;16404;49.902;10.074;2023-02-01T00:41:36;6.07;;;3.88;;
29430;SDS011;16404;49.902;10.074;2023-02-01T00:44:20;6.65;;;4.60;;
29430;SDS011;16404;49.902;10.074;2023-02-01T00:47:05;6.60;;;4.47;;
29430;SDS011;16404;49.902;10.074;2023-02-01T00:49:49;6.75;;;4.82;;
29430;SDS011;16404;49.902;10.074;2023-02-01T00:52:34;11.40;;;5.80;;
29430;SDS011;16404;49.902;10.074;2023-02-01T00:55:19;9.32;;;5.97;;
29430;SDS011;16404;49.902;10.074;2023-02-01T00:58:04;12.65;;;5.65;;
29430;SDS011;16404;49.902;10.074;2023-02-01T01:00:50;9.25;;;6.13;;
29430;SDS011;16404;49.902;10.074;2023-02-01T01:03:45;11.43;;;6.90;;
29430;SDS011;16404;49.902;10.074;2023-02-01T01:06:38;15.05;;;6.50;;
29430;SDS011;16404;49.902;10.074;2023-02-01T01:09:22;14.95;;;6.70;;
29430;SDS011;16404;49.902;10.074;2023-02-01T01:12:07;10.88;;;6.35;;
29430;SDS011;16404;49.902;10.074;2023-02-01T01:14:51;12.95;;;6.68;;
29430;SDS011;16404;49.902;10.074;2023-02-01T01:17:37;18.55;;;7.60;;
29430;SDS011;16404;49.902;10.074;2023-02-01T01:20:21;8.77;;;5.75;;
29430;SDS011;16404;49.902;10.074;2023-02-01T01:23:06;10.40;;;5.40;;
29430;SDS011;16404;49.902;10.074;2023-02-01T01:25:52;9.20;;;5.55;;
29430;SDS011;16404;49.902;10.074;2023-02-01T01:28:37;10.13;;;5.50;;
29430;SDS011;16404;49.902;10.074;2023-02-01T01:31:22;7.75;;;6.15;;
29430;SDS011;16404;49.902;10.074;2023-02-01T01:36:52;8.90;;;4.93;;
29430;SDS011;16404;49.902;10.074;2023-02-01T01:39:36;7.95;;;5.10;;
29430;SDS011;16404;49.902;10.074;2023-02-01T01:42:21;10.70;;;5.65;;
29430;SDS011;16404;49.902;10.074;2023-02-01T01:45:07;9.80;;;5.38;;
29430;SDS011;16404;49.902;10.074;2023-02-01T01:48:13;9.95;;;5.45;;
29430;SDS011;16404;49.902;10.074;2023-02-01T01:51:05;9.15;;;6.05;;
29430;SDS011;16404;49.902;10.074;2023-02-01T01:53:59;11.32;;;6.32;;
29430;SDS011;16404;49.902;10.074;2023-02-01T01:56:54;10.98;;;6.65;;
29430;SDS011;16404;49.902;10.074;2023-02-01T01:59:43;11.50;;;6.47;;
29430;SDS011;16404;49.902;10.074;2023-02-01T02:02:33;9.75;;;6.20;;
29430;SDS011;16404;49.902;10.074;2023-02-01T02:05:20;13.38;;;6.68;;
29430;SDS011;16404;49.902;10.074;2023-02-01T02:10:50;9.60;;;6.55;;
29430;SDS011;16404;49.902;10.074;2023-02-01T02:13:45;10.82;;;5.95;;
29430;SDS011;16404;49.902;10.074;2023-02-01T02:25:49;6.75;;;4.32;;
29430;SDS011;16404;49.902;10.074;2023-02-01T02:32:20;6.53;;;4.32;;
29430;SDS011;16404;49.902;10.074;2023-02-01T02:41:41;9.10;;;4.88;;
29430;SDS011;16404;49.902;10.074;2023-02-01T02:45:04;5.03;;;4.47;;
29430;SDS011;16404;49.902;10.074;2023-02-01T02:48:18;9.63;;;4.50;;
29430;SDS011;16404;49.902;10.074;2023-02-01T02:51:05;5.30;;;4.05;;
29430;SDS011;16404;49.902;10.074;2023-02-01T02:54:14;7.82;;;4.47;;
29430;SDS011;16404;49.902;10.074;2023-02-01T03:00:33;7.00;;;4.50;;
29430;SDS011;16404;49.902;10.074;2023-02-01T03:03:38;6.05;;;4.47;;
29430;SDS011;16404;49.902;10.074;2023-02-01T03:06:42;5.72;;;4.38;;
29430;SDS011;16404;49.902;10.074;2023-02-01T03:12:17;8.38;;;4.93;;
29430;SDS011;16404;49.902;10.074;2023-02-01T03:15:22;7.55;;;4.57;;
29430;SDS011;16404;49.902;10.074;2023-02-01T03:21:35;7.22;;;4.32;;
29430;SDS011;16404;49.902;10.074;2023-02-01T03:24:40;6.60;;;4.55;;
29430;SDS011;16404;49.902;10.074;2023-02-01T03:30:31;9.23;;;4.60;;
29430;SDS011;16404;49.902;10.074;2023-02-01T03:33:23;5.22;;;4.22;;
29430;SDS011;16404;49.902;10.074;2023-02-01T03:42:05;8.35;;;4.57;;
29430;SDS011;16404;49.902;10.074;2023-02-01T03:45:07;8.35;;;3.90;;
29430;SDS011;16404;49.902;10.074;2023-02-01T03:48:07;4.10;;;3.17;;
29430;SDS011;16404;49.902;10.074;2023-02-01T03:50:55;5.30;;;3.20;;
29430;SDS011;16404;49.902;10.074;2023-02-01T03:53:42;10.35;;;3.22;;
29430;SDS011;16404;49.902;10.074;2023-02-01T03:56:30;3.88;;;2.60;;
29430;SDS011;16404;49.902;10.074;2023-02-01T03:59:17;3.63;;;2.75;;
29430;SDS011;16404;49.902;10.074;2023-02-01T04:04:46;3.25;;;2.33;;
29430;SDS011;16404;49.902;10.074;2023-02-01T04:07:34;4.65;;;2.38;;
29430;SDS011;16404;49.902;10.074;2023-02-01T04:10:19;3.05;;;2.53;;
29430;SDS011;16404;49.902;10.074;2023-02-01T04:13:03;3.55;;;2.60;;
29430;SDS011;16404;49.902;10.074;2023-02-01T04:15:48;3.72;;;2.47;;
29430;SDS011;16404;49.902;10.074;2023-02-01T04:21:18;4.57;;;2.10;;
29430;SDS011;16404;49.902;10.074;2023-02-01T04:24:03;5.28;;;3.03;;
29430;SDS011;16404;49.902;10.074;2023-02-01T04:26:48;4.20;;;2.70;;
29430;SDS011;16404;49.902;10.074;2023-02-01T04:29:33;4.70;;;3.13;;
29430;SDS011;16404;49.902;10.074;2023-02-01T04:35:03;5.47;;;2.90;;
29430;SDS011;16404;49.902;10.074;2023-02-01T04:37:49;4.43;;;3.20;;
29430;SDS011;16404;49.902;10.074;2023-02-01T04:40:34;6.07;;;2.88;;
29430;SDS011;16404;49.902;10.074;2023-02-01T04:43:18;4.95;;;3.28;;
29430;SDS011;16404;49.902;10.074;2023-02-01T04:46:03;7.18;;;3.40;;
29430;SDS011;16404;49.902;10.074;2023-02-01T04:48:48;5.55;;;2.90;;
29430;SDS011;16404;49.902;10.074;2023-02-01T04:51:33;5.05;;;3.08;;
29430;SDS011;16404;49.902;10.074;2023-02-01T04:54:18;6.68;;;3.58;;
29430;SDS011;16404;49.902;10.074;2023-02-01T04:57:02;5.53;;;3.15;;
29430;SDS011;16404;49.902;10.074;2023-02-01T04:59:47;5.25;;;3.00;;
29430;SDS011;16404;49.902;10.074;2023-02-01T05:02:31;6.43;;;2.90;;
29430;SDS011;16404;49.902;10.074;2023-02-01T05:05:16;11.13;;;2.83;;
29430;SDS011;16404;49.902;10.074;2023-02-01T05:08:00;4.50;;;2.67;;
29430;SDS011;16404;49.902;10.074;2023-02-01T05:10:45;12.40;;;3.03;;
29430;SDS011;16404;49.902;10.074;2023-02-01T05:13:30;12.13;;;2.90;;
29430;SDS011;16404;49.902;10.074;2023-02-01T05:16:33;8.25;;;2.22;;
29430;SDS011;16404;49.902;10.074;2023-02-01T05:19:17;7.80;;;2.58;;
29430;SDS011;16404;49.902;10.074;2023-02-01T05:22:02;10.27;;;2.35;;
29430;SDS011;16404;49.902;10.074;2023-02-01T05:24:47;8.95;;;2.90;;
29430;SDS011;16404;49.902;10.074;2023-02-01T05:27:31;12.90;;;2.92;;
29430;SDS011;16404;49.902;10.074;2023-02-01T05:30:16;10.55;;;2.83;;
29430;SDS011;16404;49.902;10.074;2023-02-01T05:33:01;9.32;;;2.70;;
29430;SDS011;16404;49.902;10.074;2023-02-01T05:35:46;14.52;;;2.70;;
29430;SDS011;16404;49.902;10.074;2023-02-01T05:38:30;23.60;;;2.88;;
29430;SDS011;16404;49.902;10.074;2023-02-01T05:41:14;9.70;;;3.03;;
29430;SDS011;16404;49.902;10.074;2023-02-01T05:43:59;13.85;;;2.83;;
29430;SDS011;16404;49.902;10.074;2023-02-01T05:46:44;14.77;;;3.03;;
29430;SDS011;16404;49.902;10.074;2023-02-01T05:49:28;7.45;;;2.65;;
29430;SDS011;16404;49.902;10.074;2023-02-01T05:52:13;13.80;;;3.55;;
29430;SDS011;16404;49.902;10.074;2023-02-01T05:54:59;10.32;;;2.33;;
29430;SDS011;16404;49.902;10.074;2023-02-01T05:57:44;10.15;;;2.40;;
29430;SDS011;16404;49.902;10.074;2023-02-01T06:00:29;7.45;;;2.50;;
29430;SDS011;16404;49.902;10.074;2023-02-01T06:03:13;9.95;;;2.53;;
29430;SDS011;16404;49.902;10.074;2023-02-01T06:05:58;10.52;;;2.50;;
29430;SDS011;16404;49.902;10.074;2023-02-01T06:08:44;7.43;;;2.45;;
29430;SDS011;16404;49.902;10.074;2023-02-01T06:11:29;10.73;;;2.90;;
29430;SDS011;16404;49.902;10.074;2023-02-01T06:14:13;8.63;;;2.15;;
29430;SDS011;16404;49.902;10.074;2023-02-01T06:16:58;9.52;;;2.58;;
29430;SDS011;16404;49.902;10.074;2023-02-01T06:19:43;7.60;;;2.63;;
29430;SDS011;16404;49.902;10.074;2023-02-01T06:22:28;10.82;;;2.55;;
29430;SDS011;16404;49.902;10.074;2023-02-01T06:25:13;6.82;;;2.70;;
29430;SDS011;16404;49.902;10.074;2023-02-01T06:28:00;5.75;;;2.42;;
29430;SDS011;16404;49.902;10.074;2023-02-01T06:30:45;8.35;;;2.55;;
29430;SDS011;16404;49.902;10.074;2023-02-01T06:33:30;8.27;;;2.70;;
29430;SDS011;16404;49.902;10.074;2023-02-01T06:36:15;6.82;;;3.20;;
29430;SDS011;16404;49.902;10.074;2023-02-01T06:38:59;9.70;;;2.88;;
29430;SDS011;16404;49.902;10.074;2023-02-01T06:41:47;6.50;;;2.50;;
29430;SDS011;16404;49.902;10.074;2023-02-01T06:44:32;7.20;;;3.00;;
29430;SDS011;16404;49.902;10.074;2023-02-01T06:47:17;5.60;;;2.63;;
29430;SDS011;16404;49.902;10.074;2023-02-01T06:50:02;7.60;;;2.80;;
29430;SDS011;16404;49.902;10.074;2023-02-01T06:52:47;10.07;;;3.03;;
29430;SDS011;16404;49.902;10.074;2023-02-01T06:55:31;8.38;;;2.88;;
29430;SDS011;16404;49.902;10.074;2023-02-01T06:58:16;9.27;;;3.10;;
29430;SDS011;16404;49.902;10.074;2023-02-01T07:01:04;7.47;;;3.33;;
29430;SDS011;16404;49.902;10.074;2023-02-01T07:03:50;7.93;;;3.35;;
29430;SDS011;16404;49.902;10.074;2023-02-01T07:06:34;14.80;;;6.75;;
29430;SDS011;16404;49.902;10.074;2023-02-01T07:09:19;19.02;;;9.27;;
29430;SDS011;16404;49.902;10.074;2023-02-01T07:12:04;16.52;;;5.75;;
29430;SDS011;16404;49.902;10.074;2023-02-01T07:14:48;11.30;;;5.47;;
29430;SDS011;16404;49.902;10.074;2023-02-01T07:17:33;14.60;;;5.15;;
29430;SDS011;16404;49.902;10.074;2023-02-01T07:20:18;9.68;;;4.18;;
29430;SDS011;16404;49.902;10.074;2023-02-01T07:23:02;16.10;;;5.32;;
29430;SDS011;16404;49.902;10.074;2023-02-01T07:25:47;14.40;;;4.60;;
29430;SDS011;16404;49.902;10.074;2023-02-01T07:28:33;12.45;;;4.65;;
29430;SDS011;16404;49.902;10.074;2023-02-01T07:31:19;12.40;;;4.68;;
29430;SDS011;16404;49.902;10.074;2023-02-01T07:34:05;12.50;;;4.30;;
29430;SDS011;16404;49.902;10.074;2023-02-01T07:36:50;11.98;;;4.60;;
29430;SDS011;16404;49.902;10.074;2023-02-01T07:39:34;14.95;;;4.53;;
29430;SDS011;16404;49.902;10.074;2023-02-01T07:42:19;20.58;;;7.50;;
29430;SDS011;16404;49.902;10.074;2023-02-01T07:45:04;16.23;;;4.80;;
29430;SDS011;16404;49.902;10.074;2023-02-01T07:47:51;30.58;;;11.65;;
29430;SDS011;16404;49.902;10.074;2023-02-01T07:50:36;20.42;;;6.13;;
29430;SDS011;16404;49.902;10.074;2023-02-01T07:53:20;29.13;;;7.90;;
29430;SDS011;16404;49.902;10.074;2023-02-01T07:56:10;45.30;;;16.23;;
29430;SDS011;16404;49.902;10.074;2023-02-01T07:59:02;20.17;;;6.70;;
29430;SDS011;16404;49.902;10.074;2023-02-01T08:01:46;18.55;;;6.35;;
29430;SDS011;16404;49.902;10.074;2023-02-01T08:04:31;19.15;;;6.70;;
29430;SDS011;16404;49.902;10.074;2023-02-01T08:07:16;30.55;;;10.30;;
29430;SDS011;16404;49.902;10.074;2023-02-01T08:10:00;20.20;;;5.55;;
29430;SDS011;16404;49.902;10.074;2023-02-01T08:12:45;31.10;;;10.15;;
29430;SDS011;16404;49.902;10.074;2023-02-01T08:15:35;23.45;;;5.78;;
29430;SDS011;16404;49.902;10.074;2023-02-01T08:18:19;23.75;;;6.20;;
29430;SDS011;16404;49.902;10.074;2023-02-01T08:21:09;18.77;;;6.10;;
29430;SDS011;16404;49.902;10.074;2023-02-01T08:23:55;34.22;;;12.60;;
29430;SDS011;16404;49.902;10.074;2023-02-01T08:26:40;26.17;;;9.93;;
29430;SDS011;16404;49.902;10.074;2023-02-01T08:29:24;34.95;;;11.65;;
29430;SDS011;16404;49.902;10.074;2023-02-01T08:32:09;18.52;;;7.00;;
29430;SDS011;16404;49.902;10.074;2023-02-01T08:34:53;13.32;;;4.68;;
29430;SDS011;16404;49.902;10.074;2023-02-01T08:37:38;17.92;;;5.18;;
29430;SDS011;16404;49.902;10.074;2023-02-01T08:40:23;15.40;;;4.45;;
29430;SDS011;16404;49.902;10.074;2023-02-01T08:43:07;11.43;;;4.05;;
29430;SDS011;16404;49.902;10.074;2023-02-01T08:45:53;14.38;;;3.38;;
29430;SDS011;16404;49.902;10.074;2023-02-01T08:48:39;11.48;;;4.18;;
29430;SDS011;16404;49.902;10.074;2023-02-01T08:54:08;15.13;;;4.13;;
29430;SDS011;16404;49.902;10.074;2023-02-01T08:56:52;20.15;;;4.25;;
29430;SDS011;16404;49.902;10.074;2023-02-01T08:59:38;12.13;;;4.50;;
29430;SDS011;16404;49.902;10.074;2023-02-01T09:02:25;16.10;;;4.47;;
29430;SDS011;16404;49.902;10.074;2023-02-01T09:05:10;9.80;;;3.70;;
29430;SDS011;16404;49.902;10.074;2023-02-01T09:07:55;12.27;;;3.78;;
29430;SDS011;16404;49.902;10.074;2023-02-01T09:10:40;13.90;;;3.20;;
29430;SDS011;16404;49.902;10.074;2023-02-01T09:13:25;9.38;;;3.25;;
29430;SDS011;16404;49.902;10.074;2023-02-01T09:16:16;16.08;;;4.85;;
29430;SDS011;16404;49.902;10.074;2023-02-01T09:19:05;17.23;;;4.80;;
29430;SDS011;16404;49.902;10.074;2023-02-01T09:21:50;14.70;;;4.63;;
29430;SDS011;16404;49.902;10.074;2023-02-01T09:24:38;19.77;;;5.68;;
29430;SDS011;16404;49.902;10.074;2023-02-01T09:27:23;20.67;;;5.63;;
29430;SDS011;16404;49.902;10.074;2023-02-01T09:30:08;18.00;;;3.83;;
29430;SDS011;16404;49.902;10.074;2023-02-01T09:35:37;15.73;;;4.32;;
29430;SDS011;16404;49.902;10.074;2023-02-01T09:38:22;11.73;;;3.42;;
29430;SDS011;16404;49.902;10.074;2023-02-01T09:41:20;15.07;;;3.40;;
29430;SDS011;16404;49.902;10.074;2023-02-01T09:48:10;14.30;;;4.30;;
29430;SDS011;16404;49.902;10.074;2023-02-01T09:51:02;13.70;;;3.58;;
29430;SDS011;16404;49.902;10.074;2023-02-01T09:54:02;16.17;;;3.97;;
29430;SDS011;16404;49.902;10.074;2023-02-01T10:02:58;15.25;;;4.57;;
29430;SDS011;16404;49.902;10.074;2023-02-01T10:27:44;17.70;;;3.55;;
29430;SDS011;16404;49.902;10.074;2023-02-01T10:30:34;13.45;;;2.60;;
29430;SDS011;16404;49.902;10.074;2023-02-01T10:33:30;9.73;;;3.28;;
29430;SDS011;16404;49.902;10.074;2023-02-01T10:36:16;13.05;;;3.35;;
29430;SDS011;16404;49.902;10.074;2023-02-01T10:39:08;17.90;;;3.65;;
29430;SDS011;16404;49.902;10.074;2023-02-01T10:41:57;12.48;;;2.95;;
29430;SDS011;16404;49.902;10.074;2023-02-01T10:44:43;18.20;;;4.03;;
29430;SDS011;16404;49.902;10.074;2023-02-01T10:47:32;12.32;;;2.90;;
29430;SDS011;16404;49.902;10.074;2023-02-01T10:56:46;12.77;;;3.38;;
29430;SDS011;16404;49.902;10.074;2023-02-01T10:59:31;11.25;;;3.08;;
29430;SDS011;16404;49.902;10.074;2023-02-01T11:02:25;18.83;;;3.45;;
29430;SDS011;16404;49.902;10.074;2023-02-01T11:05:16;15.57;;;2.70;;
29430;SDS011;16404;49.902;10.074;2023-02-01T11:08:02;9.98;;;2.95;;
29430;SDS011;16404;49.902;10.074;2023-02-01T11:10:48;13.82;;;2.83;;
29430;SDS011;16404;49.902;10.074;2023-02-01T11:13:57;11.77;;;2.80;;
29430;SDS011;16404;49.902;10.074;2023-02-01T11:17:00;10.57;;;2.72;;
29430;SDS011;16404;49.902;10.074;2023-02-01T11:19:46;12.23;;;2.63;;
29430;SDS011;16404;49.902;10.074;2023-02-01T11:22:45;12.35;;;2.33;;
29430;SDS011;16404;49.902;10.074;2023-02-01T11:25:31;15.80;;;2.70;;
29430;SDS011;16404;49.902;10.074;2023-02-01T11:28:20;10.40;;;2.72;;
29430;SDS011;16404;49.902;10.074;2023-02-01T11:31:10;11.50;;;2.47;;
29430;SDS011;16404;49.902;10.074;2023-02-01T11:34:14;13.05;;;2.85;;
29430;SDS011;16404;49.902;10.074;2023-02-01T11:37:05;15.10;;;2.60;;
29430;SDS011;16404;49.902;10.074;2023-02-01T11:40:04;12.77;;;2.58;;
29430;SDS011;16404;49.902;10.074;2023-02-01T11:43:13;8.50;;;2.33;;
29430;SDS011;16404;49.902;10.074;2023-02-01T11:46:02;11.10;;;3.00;;
29430;SDS011;16404;49.902;10.074;2023-02-01T11:52:28;9.27;;;2.20;;
29430;SDS011;16404;49.902;10.074;2023-02-01T12:15:19;9.85;;;2.00;;
29430;SDS011;16404;49.902;10.074;2023-02-01T12:26:55;14.77;;;2.40;;
29430;SDS011;16404;49.902;10.074;2023-02-01T12:38:57;10.60;;;3.60;;
29430;SDS011;16404;49.902;10.074;2023-02-01T12:42:31;12.00;;;3.33;;
29430;SDS011;16404;49.902;10.074;2023-02-01T12:51:11;13.05;;;2.72;;
29430;SDS011;16404;49.902;10.074;2023-02-01T12:57:02;12.95;;;2.90;;
29430;SDS011;16404;49.902;10.074;2023-02-01T12:59:56;14.88;;;2.75;;
29430;SDS011;16404;49.902;10.074;2023-02-01T13:11:44;15.18;;;5.00;;
29430;SDS011;16404;49.902;10.074;2023-02-01T13:14:48;21.15;;;4.78;;
29430;SDS011;16404;49.902;10.074;2023-02-01T13:17:37;16.50;;;4.00;;
29430;SDS011;16404;49.902;10.074;2023-02-01T13:20:47;13.85;;;3.40;;
29430;SDS011;16404;49.902;10.074;2023-02-01T13:23:32;13.73;;;4.00;;
29430;SDS011;16404;49.902;10.074;2023-02-01T13:26:19;9.30;;;3.58;;
29430;SDS011;16404;49.902;10.074;2023-02-01T13:29:06;16.50;;;3.47;;
29430;SDS011;16404;49.902;10.074;2023-02-01T13:37:57;12.73;;;2.30;;
29430;SDS011;16404;49.902;10.074;2023-02-01T13:43:59;9.57;;;2.45;;
29430;SDS011;16404;49.902;10.074;2023-02-01T13:46:49;6.63;;;2.65;;
29430;SDS011;16404;49.902;10.074;2023-02-01T13:49:40;11.77;;;2.42;;
29430;SDS011;16404;49.902;10.074;2023-02-01T13:52:36;12.15;;;2.67;;
29430;SDS011;16404;49.902;10.074;2023-02-01T13:55:25;6.82;;;2.00;;
29430;SDS011;16404;49.902;10.074;2023-02-01T14:04:45;10.43;;;2.65;;
29430;SDS011;16404;49.902;10.074;2023-02-01T14:07:33;13.75;;;3.65;;
29430;SDS011;16404;49.902;10.074;2023-02-01T14:13:41;11.73;;;2.67;;
29430;SDS011;16404;49.902;10.074;2023-02-01T14:16:25;20.17;;;3.97;;
29430;SDS011;16404;49.902;10.074;2023-02-01T14:19:21;18.45;;;3.38;;
29430;SDS011;16404;49.902;10.074;2023-02-01T14:25:17;15.07;;;3.65;;
29430;SDS011;16404;49.902;10.074;2023-02-01T14:28:03;9.98;;;3.20;;
29430;SDS011;16404;49.902;10.074;2023-02-01T14:31:26;13.20;;;3.47;;
29430;SDS011;16404;49.902;10.074;2023-02-01T14:34:26;10.18;;;2.70;;
29430;SDS011;16404;49.902;10.074;2023-02-01T14:37:32;11.73;;;2.92;;
29430;SDS011;16404;49.902;10.074;2023-02-01T14:40:20;17.02;;;4.00;;
29430;SDS011;16404;49.902;10.074;2023-02-01T14:43:09;8.18;;;2.30;;
29430;SDS011;16404;49.902;10.074;2023-02-01T14:45:53;10.95;;;3.08;;
29430;SDS011;16404;49.902;10.074;2023-02-01T14:51:26;10.35;;;2.65;;
29430;SDS011;16404;49.902;10.074;2023-02-01T14:54:11;7.15;;;2.40;;
29430;SDS011;16404;49.902;10.074;2023-02-01T14:56:57;15.77;;;2.53;;
29430;SDS011;16404;49.902;10.074;2023-02-01T14:59:44;11.63;;;2.33;;
29430;SDS011;16404;49.902;10.074;2023-02-01T15:02:29;11.52;;;2.22;;
29430;SDS011;16404;49.902;10.074;2023-02-01T15:05:32;10.38;;;3.08;;
29430;SDS011;16404;49.902;10.074;2023-02-01T15:08:18;19.83;;;2.90;;
29430;SDS011;16404;49.902;10.074;2023-02-01T15:11:06;16.30;;;3.80;;
29430;SDS011;16404;49.902;10.074;2023-02-01T15:13:57;15.68;;;4.22;;
29430;SDS011;16404;49.902;10.074;2023-02-01T15:16:44;14.48;;;3.40;;
29430;SDS011;16404;49.902;10.074;2023-02-01T15:19:33;11.88;;;2.60;;
29430;SDS011;16404;49.902;10.074;2023-02-01T15:22:18;8.90;;;2.45;;
29430;SDS011;16404;49.902;10.074;2023-02-01T15:25:04;10.98;;;2.70;;
29430;SDS011;16404;49.902;10.074;2023-02-01T15:27:50;13.73;;;3.03;;
29430;SDS011;16404;49.902;10.074;2023-02-01T15:30:35;10.50;;;2.72;;
29430;SDS011;16404;49.902;10.074;2023-02-01T15:33:20;6.80;;;2.50;;
29430;SDS011;16404;49.902;10.074;2023-02-01T15:39:11;15.95;;;2.40;;
29430;SDS011;16404;49.902;10.074;2023-02-01T15:42:15;12.45;;;2.55;;
29430;SDS011;16404;49.902;10.074;2023-02-01T15:45:03;21.83;;;3.17;;
29430;SDS011;16404;49.902;10.074;2023-02-01T15:50:37;10.65;;;2.05;;
29430;SDS011;16404;49.902;10.074;2023-02-01T15:53:24;9.90;;;2.40;;
29430;SDS011;16404;49.902;10.074;2023-02-01T15:56:14;11.15;;;2.60;;
29430;SDS011;16404;49.902;10.074;2023-02-01T15:59:00;14.75;;;2.70;;
29430;SDS011;16404;49.902;10.074;2023-02-01T16:01:48;12.60;;;3.92;;
29430;SDS011;16404;49.902;10.074;2023-02-01T16:04:45;10.70;;;3.72;;
29430;SDS011;16404;49.902;10.074;2023-02-01T16:07:33;16.23;;;3.70;;
29430;SDS011;16404;49.902;10.074;2023-02-01T16:10:23;12.50;;;2.40;;
29430;SDS011;16404;49.902;10.074;2023-02-01T16:13:10;15.18;;;3.28;;
29430;SDS011;16404;49.902;10.074;2023-02-01T16:15:55;18.30;;;3.33;;
29430;SDS011;16404;49.902;10.074;2023-02-01T16:18:40;18.67;;;4.22;;
29430;SDS011;16404;49.902;10.074;2023-02-01T16:21:25;15.95;;;4.18;;
29430;SDS011;16404;49.902;10.074;2023-02-01T16:24:09;16.33;;;4.15;;
29430;SDS011;16404;49.902;10.074;2023-02-01T16:26:54;12.20;;;3.63;;
29430;SDS011;16404;49.902;10.074;2023-02-01T16:29:38;11.60;;;3.42;;
29430;SDS011;16404;49.902;10.074;2023-02-01T16:32:23;7.70;;;2.92;;
29430;SDS011;16404;49.902;10.074;2023-02-01T16:38:04;16.40;;;3.58;;
29430;SDS011;16404;49.902;10.074;2023-02-01T16:40:56;14.80;;;2.97;;
29430;SDS011;16404;49.902;10.074;2023-02-01T16:43:41;10.70;;;2.42;;
29430;SDS011;16404;49.902;10.074;2023-02-01T16:46:26;10.32;;;2.33;;
29430;SDS011;16404;49.902;10.074;2023-02-01T16:49:19;13.32;;;2.78;;
29430;SDS011;16404;49.902;10.074;2023-02-01T16:52:08;14.98;;;3.35;;
29430;SDS011;16404;49.902;10.074;2023-02-01T16:54:57;12.35;;;2.80;;
29430;SDS011;16404;49.902;10.074;2023-02-01T16:57:42;12.45;;;2.72;;
29430;SDS011;16404;49.902;10.074;2023-02-01T17:00:27;9.65;;;2.17;;
29430;SDS011;16404;49.902;10.074;2023-02-01T17:03:14;14.30;;;3.30;;
29430;SDS011;16404;49.902;10.074;2023-02-01T17:06:00;16.00;;;2.60;;
29430;SDS011;16404;49.902;10.074;2023-02-01T17:08:45;13.27;;;3.15;;
29430;SDS011;16404;49.902;10.074;2023-02-01T17:11:34;13.65;;;2.50;;
29430;SDS011;16404;49.902;10.074;2023-02-01T17:14:19;10.55;;;2.70;;
29430;SDS011;16404;49.902;10.074;2023-02-01T17:17:05;12.95;;;2.83;;
29430;SDS011;16404;49.902;10.074;2023-02-01T17:19:50;15.00;;;2.60;;
29430;SDS011;16404;49.902;10.074;2023-02-01T17:22:37;10.80;;;2.50;;
29430;SDS011;16404;49.902;10.074;2023-02-01T17:25:21;16.08;;;2.30;;
29430;SDS011;16404;49.902;10.074;2023-02-01T17:28:06;11.27;;;3.63;;
29430;SDS011;16404;49.902;10.074;2023-02-01T17:30:51;13.30;;;3.28;;
29430;SDS011;16404;49.902;10.074;2023-02-01T17:33:36;13.88;;;5.18;;
29430;SDS011;16404;49.902;10.074;2023-02-01T17:36:20;16.25;;;2.90;;
29430;SDS011;16404;49.902;10.074;2023-02-01T17:39:05;15.13;;;2.67;;
29430;SDS011;16404;49.902;10.074;2023-02-01T17:41:49;12.32;;;3.10;;
29430;SDS011;16404;49.902;10.074;2023-02-01T17:44:34;15.13;;;3.67;;
29430;SDS011;16404;49.902;10.074;2023-02-01T17:47:19;11.95;;;2.85;;
29430;SDS011;16404;49.902;10.074;2023-02-01T17:50:03;13.38;;;3.38;;
29430;SDS011;16404;49.902;10.074;2023-02-01T17:52:48;14.00;;;2.63;;
29430;SDS011;16404;49.902;10.074;2023-02-01T17:55:33;14.25;;;2.85;;
29430;SDS011;16404;49.902;10.074;2023-02-01T17:58:19;12.05;;;2.45;;
29430;SDS011;16404;49.902;10.074;2023-02-01T18:03:48;9.05;;;3.00;;
29430;SDS011;16404;49.902;10.074;2023-02-01T18:06:34;22.48;;;4.72;;
29430;SDS011;16404;49.902;10.074;2023-02-01T18:12:04;15.77;;;3.50;;
29430;SDS011;16404;49.902;10.074;2023-02-01T18:14:48;16.08;;;3.78;;
29430;SDS011;16404;49.902;10.074;2023-02-01T18:17:33;13.00;;;4.32;;
29430;SDS011;16404;49.902;10.074;2023-02-01T18:20:18;18.70;;;3.75;;
29430;SDS011;16404;49.902;10.074;2023-02-01T18:23:04;17.70;;;4.40;;
29430;SDS011;16404;49.902;10.074;2023-02-01T18:25:49;16.40;;;3.72;;
29430;SDS011;16404;49.902;10.074;2023-02-01T18:28:35;12.43;;;2.58;;
29430;SDS011;16404;49.902;10.074;2023-02-01T18:31:21;14.65;;;2.70;;
29430;SDS011;16404;49.902;10.074;2023-02-01T18:34:10;12.15;;;2.53;;
29430;SDS011;16404;49.902;10.074;2023-02-01T18:36:59;14.75;;;4.22;;
29430;SDS011;16404;49.902;10.074;2023-02-01T18:42:29;19.35;;;2.35;;
29430;SDS011;16404;49.902;10.074;2023-02-01T18:45:35;18.25;;;2.90;;
29430;SDS011;16404;49.902;10.074;2023-02-01T18:48:19;10.70;;;2.88;;
29430;SDS011;16404;49.902;10.074;2023-02-01T18:51:04;10.77;;;2.40;;
29430;SDS011;16404;49.902;10.074;2023-02-01T18:53:49;18.60;;;2.85;;
29430;SDS011;16404;49.902;10.074;2023-02-01T18:56:34;15.48;;;2.70;;
29430;SDS011;16404;49.902;10.074;2023-02-01T18:59:18;15.75;;;3.00;;
29430;SDS011;16404;49.902;10.074;2023-02-01T19:02:03;18.48;;;2.85;;
29430;SDS011;16404;49.902;10.074;2023-02-01T19:04:48;13.45;;;2.45;;
29430;SDS011;16404;49.902;10.074;2023-02-01T19:07:33;14.13;;;3.40;;
29430;SDS011;16404;49.902;10.074;2023-02-01T19:10:20;14.50;;;2.60;;
29430;SDS011;16404;49.902;10.074;2023-02-01T19:13:05;14.75;;;3.05;;
29430;SDS011;16404;49.902;10.074;2023-02-01T19:15:56;45.28;;;18.70;;
29430;SDS011;16404;49.902;10.074;2023-02-01T19:18:40;21.45;;;9.40;;
29430;SDS011;16404;49.902;10.074;2023-02-01T19:21:25;15.75;;;6.32;;
29430;SDS011;16404;49.902;10.074;2023-02-01T19:24:10;19.75;;;5.18;;
29430;SDS011;16404;49.902;10.074;2023-02-01T19:26:54;12.23;;;3.85;;
29430;SDS011;16404;49.902;10.074;2023-02-01T19:29:39;16.85;;;3.25;;
29430;SDS011;16404;49.902;10.074;2023-02-01T19:32:27;14.90;;;3.75;;
29430;SDS011;16404;49.902;10.074;2023-02-01T19:40:42;15.00;;;2.75;;
29430;SDS011;16404;49.902;10.074;2023-02-01T19:46:12;21.20;;;3.63;;
29430;SDS011;16404;49.902;10.074;2023-02-01T19:48:56;15.43;;;2.75;;
29430;SDS011;16404;49.902;10.074;2023-02-01T19:51:41;18.98;;;3.92;;
29430;SDS011;16404;49.902;10.074;2023-02-01T19:54:27;10.40;;;2.60;;